createdAt,value
2017-05-07T00:01:05.888Z,59.00
2017-05-07T00:03:34.836Z,59.10
2017-05-07T00:06:03.747Z,59.20
2017-05-07T00:08:32.788Z,59.00
2017-05-07T00:11:01.730Z,59.20
2017-05-07T00:13:30.645Z,59.70
2017-05-07T00:16:00.396Z,60.80
2017-05-07T00:18:30.131Z,60.90
2017-05-07T00:20:59.047Z,60.70
2017-05-07T00:23:28.003Z,60.40
2017-05-07T00:25:56.929Z,60.50
2017-05-07T00:28:25.851Z,60.30
2017-05-07T00:30:55.531Z,60.00
2017-05-07T00:33:24.455Z,59.80
2017-05-07T00:35:54.149Z,59.70
2017-05-07T00:38:23.789Z,59.80
2017-05-07T00:40:52.724Z,59.70
2017-05-07T00:43:21.677Z,59.70
2017-05-07T00:45:50.596Z,59.70
2017-05-07T00:48:19.499Z,59.70
2017-05-07T00:50:48.462Z,59.70
2017-05-07T00:53:18.112Z,59.70
2017-05-07T00:55:47.063Z,59.70
2017-05-07T00:58:16.711Z,59.50
2017-05-07T01:00:45.638Z,59.60
2017-05-07T01:03:14.615Z,59.60
2017-05-07T01:05:44.314Z,59.70
2017-05-07T01:08:13.249Z,59.70
2017-05-07T01:10:42.924Z,59.80
2017-05-07T01:13:11.822Z,59.80
2017-05-07T01:15:40.731Z,59.90
2017-05-07T01:18:09.709Z,60.10
2017-05-07T01:20:38.617Z,60.50
2017-05-07T01:23:07.560Z,60.70
2017-05-07T01:25:37.215Z,61.10
2017-05-07T01:28:06.116Z,61.50
2017-05-07T01:30:35.773Z,61.60
2017-05-07T01:33:04.754Z,61.70
2017-05-07T01:35:33.677Z,61.80
2017-05-07T01:38:02.632Z,61.70
2017-05-07T01:40:31.527Z,62.10
2017-05-07T01:43:00.438Z,62.60
2017-05-07T01:45:29.384Z,62.20
2017-05-07T01:47:59.021Z,61.80
2017-05-07T01:50:27.988Z,62.00
2017-05-07T01:52:56.919Z,61.30
2017-05-07T01:55:25.813Z,61.20
2017-05-07T01:57:54.843Z,61.10
2017-05-07T02:00:23.793Z,60.90
2017-05-07T02:02:52.691Z,61.10
2017-05-07T02:05:21.623Z,60.90
2017-05-07T02:07:50.567Z,60.80
2017-05-07T02:10:19.494Z,60.80
2017-05-07T02:12:48.457Z,60.60
2017-05-07T02:15:17.366Z,60.70
2017-05-07T02:17:46.275Z,60.60
2017-05-07T02:20:15.223Z,60.70
2017-05-07T02:22:44.131Z,60.90
2017-05-07T02:25:13.030Z,60.90
2017-05-07T02:27:41.968Z,60.80
2017-05-07T02:30:12.287Z,60.70
2017-05-07T02:32:41.965Z,60.50
2017-05-07T02:35:10.905Z,61.10
2017-05-07T02:37:39.770Z,61.40
2017-05-07T02:40:09.514Z,61.40
2017-05-07T02:42:38.438Z,61.40
2017-05-07T02:45:07.370Z,61.30
2017-05-07T02:47:37.054Z,61.10
2017-05-07T02:50:05.984Z,61.20
2017-05-07T02:52:34.906Z,61.10
2017-05-07T02:55:03.819Z,60.90
2017-05-07T02:57:33.478Z,61.00
2017-05-07T03:00:02.459Z,61.00
2017-05-07T03:02:31.352Z,60.20
2017-05-07T03:05:00.253Z,60.40
2017-05-07T03:07:29.223Z,60.30
2017-05-07T03:09:58.139Z,60.40
2017-05-07T03:12:27.041Z,60.40
2017-05-07T03:14:56.085Z,60.60
2017-05-07T03:17:24.962Z,60.40
2017-05-07T03:19:54.606Z,60.10
2017-05-07T03:22:23.543Z,60.50
2017-05-07T03:24:52.994Z,60.90
2017-05-07T03:27:21.899Z,61.10
2017-05-07T03:29:50.910Z,61.30
2017-05-07T03:32:19.814Z,61.20
2017-05-07T03:34:48.739Z,61.30
2017-05-07T03:37:18.406Z,61.10
2017-05-07T03:39:47.314Z,61.00
2017-05-07T03:42:16.247Z,61.20
2017-05-07T03:44:45.890Z,60.80
2017-05-07T03:47:14.810Z,60.70
2017-05-07T03:49:44.466Z,61.20
2017-05-07T03:52:14.146Z,60.60
2017-05-07T03:54:43.081Z,60.60
2017-05-07T03:57:12.013Z,60.60
2017-05-07T03:59:40.935Z,60.70
2017-05-07T04:02:09.856Z,60.60
2017-05-07T04:04:38.778Z,60.80
2017-05-07T04:07:07.713Z,61.00
2017-05-07T04:09:37.386Z,60.90
2017-05-07T04:12:06.313Z,61.20
2017-05-07T04:14:36.003Z,62.10
2017-05-07T04:17:04.914Z,61.50
2017-05-07T04:19:34.582Z,61.30
2017-05-07T04:22:03.558Z,61.50
2017-05-07T04:24:33.507Z,61.60
2017-05-07T04:27:02.545Z,61.60
2017-05-07T04:29:31.537Z,61.70
2017-05-07T04:32:00.428Z,61.70
2017-05-07T04:34:30.122Z,61.80
2017-05-07T04:36:59.805Z,61.60
2017-05-07T04:39:28.703Z,61.60
2017-05-07T04:41:57.730Z,61.70
2017-05-07T04:44:27.386Z,61.70
2017-05-07T04:46:56.321Z,61.50
2017-05-07T04:49:25.970Z,61.20
2017-05-07T04:51:54.878Z,61.10
2017-05-07T04:54:23.806Z,60.80
2017-05-07T04:56:52.712Z,60.70
2017-05-07T04:59:21.621Z,60.50
2017-05-07T05:01:51.300Z,60.10
2017-05-07T05:04:20.215Z,60.00
2017-05-07T05:06:49.897Z,60.00
2017-05-07T05:09:18.927Z,60.00
2017-05-07T05:11:48.582Z,60.20
2017-05-07T05:14:17.490Z,60.50
2017-05-07T05:16:46.421Z,60.70
2017-05-07T05:19:33.779Z,60.70
2017-05-07T05:22:05.635Z,61.20
2017-05-07T05:24:57.726Z,61.30
2017-05-07T05:27:44.483Z,61.10
2017-05-07T05:30:27.161Z,61.00
2017-05-07T05:32:56.093Z,60.60
2017-05-07T05:35:25.034Z,60.20
2017-05-07T05:37:53.994Z,59.80
2017-05-07T05:40:22.958Z,59.50
2017-05-07T05:42:52.850Z,59.10
2017-05-07T05:45:22.534Z,58.90
2017-05-07T05:47:52.395Z,58.80
2017-05-07T05:50:21.401Z,58.20
2017-05-07T05:52:51.179Z,58.00
2017-05-07T05:55:20.622Z,57.70
2017-05-07T05:57:50.327Z,57.30
2017-05-07T06:00:20.021Z,56.90
2017-05-07T06:02:49.729Z,56.60
2017-05-07T06:05:19.515Z,56.10
2017-05-07T06:07:49.264Z,55.80
2017-05-07T06:10:19.159Z,55.40
2017-05-07T06:12:49.349Z,55.30
2017-05-07T06:15:18.353Z,55.20
2017-05-07T06:17:47.305Z,55.10
2017-05-07T06:20:16.923Z,54.70
2017-05-07T06:22:45.903Z,54.90
2017-05-07T06:25:14.845Z,54.90
2017-05-07T06:27:44.460Z,55.20
2017-05-07T06:30:13.992Z,55.30
2017-05-07T06:32:44.020Z,55.00
2017-05-07T06:35:13.783Z,54.90
2017-05-07T06:37:43.554Z,54.90
2017-05-07T06:40:13.373Z,54.90
2017-05-07T06:42:42.555Z,54.90
2017-05-07T06:45:11.891Z,55.00
2017-05-07T06:47:41.194Z,54.90
2017-05-07T06:50:10.926Z,54.70
2017-05-07T06:52:40.049Z,54.80
2017-05-07T06:55:09.447Z,54.70
2017-05-07T06:57:38.963Z,54.90
2017-05-07T07:00:08.427Z,54.80
2017-05-07T07:02:37.618Z,54.60
2017-05-07T07:05:07.721Z,54.60
2017-05-07T07:07:37.036Z,54.60
2017-05-07T07:10:06.288Z,54.60
2017-05-07T07:12:36.428Z,54.30
2017-05-07T07:17:36.313Z,53.80
2017-05-07T07:20:06.509Z,53.00
2017-05-07T07:22:35.810Z,52.70
2017-05-07T07:25:05.514Z,52.80
2017-05-07T07:27:37.314Z,53.50
2017-05-07T07:30:07.192Z,53.00
2017-05-07T07:32:37.099Z,53.30
2017-05-07T07:35:06.423Z,52.50
2017-05-07T07:37:35.879Z,52.20
2017-05-07T07:40:05.714Z,51.70
2017-05-07T07:42:35.317Z,51.10
2017-05-07T07:45:05.117Z,50.30
2017-05-07T07:47:35.194Z,50.30
2017-05-07T07:50:04.403Z,50.30
2017-05-07T07:52:34.103Z,50.20
2017-05-07T07:55:03.655Z,50.70
2017-05-07T07:57:33.073Z,49.90
2017-05-07T08:00:02.946Z,50.00
2017-05-07T08:02:32.211Z,49.80
2017-05-07T08:05:01.965Z,50.00
2017-05-07T08:07:31.096Z,49.40
2017-05-07T08:10:00.367Z,48.40
2017-05-07T08:12:29.655Z,47.80
2017-05-07T08:14:59.233Z,47.50
2017-05-07T08:17:29.403Z,47.00
2017-05-07T08:19:58.573Z,46.60
2017-05-07T08:22:27.688Z,46.60
2017-05-07T08:24:57.021Z,46.50
2017-05-07T08:27:26.322Z,46.30
2017-05-07T08:45:32.739Z,47.60
2017-05-07T08:48:03.055Z,45.30
2017-05-07T08:50:33.419Z,44.10
2017-05-07T08:53:03.007Z,44.30
2017-05-07T08:55:32.172Z,46.70
2017-05-07T08:58:01.647Z,48.20
2017-05-07T09:00:31.479Z,48.80
2017-05-07T09:03:05.165Z,49.00
2017-05-07T09:05:34.424Z,49.10
2017-05-07T09:08:03.650Z,49.70
2017-05-07T09:10:34.247Z,49.50
2017-05-07T09:16:08.828Z,46.00
2017-05-07T09:18:39.511Z,45.70
2017-05-07T09:21:09.147Z,44.80
2017-05-07T09:26:08.543Z,43.00
2017-05-07T09:28:38.222Z,42.10
2017-05-07T09:31:07.617Z,41.90
2017-05-07T09:33:37.149Z,42.40
2017-05-07T09:36:06.178Z,42.70
2017-05-07T09:38:35.272Z,42.40
2017-05-07T09:41:04.341Z,42.50
2017-05-07T09:43:33.723Z,42.90
2017-05-07T09:46:09.006Z,42.90
2017-05-07T09:48:39.092Z,42.90
2017-05-07T09:51:13.693Z,43.50
2017-05-07T09:53:43.554Z,44.30
2017-05-07T09:56:12.503Z,45.40
2017-05-07T09:58:41.407Z,45.80
2017-05-07T10:01:10.326Z,45.70
2017-05-07T10:03:39.307Z,46.10
2017-05-07T10:06:08.227Z,46.30
2017-05-07T10:08:37.675Z,46.00
2017-05-07T10:11:06.626Z,45.90
2017-05-07T10:13:35.649Z,46.00
2017-05-07T10:16:05.359Z,46.00
2017-05-07T10:18:34.307Z,46.20
2017-05-07T10:21:03.226Z,45.90
2017-05-07T10:23:32.898Z,45.90
2017-05-07T10:26:01.806Z,45.50
2017-05-07T10:28:30.740Z,44.70
2017-05-07T10:30:59.828Z,42.00
2017-05-07T10:33:28.746Z,39.90
2017-05-07T10:35:57.675Z,37.10
2017-05-07T10:38:26.653Z,34.90
2017-05-07T10:40:55.585Z,32.70
2017-05-07T10:43:25.267Z,31.60
2017-05-07T10:45:54.296Z,30.30
2017-05-07T10:48:23.956Z,29.40
2017-05-07T10:50:52.864Z,29.30
2017-05-07T10:53:21.807Z,29.50
2017-05-07T10:55:50.810Z,29.70
2017-05-07T10:58:20.450Z,30.50
2017-05-07T11:00:49.368Z,30.70
2017-05-07T11:03:18.411Z,30.00
2017-05-07T11:05:47.385Z,29.70
2017-05-07T11:08:16.353Z,30.00
2017-05-07T11:10:45.304Z,29.40
2017-05-07T11:13:14.349Z,29.60
2017-05-07T11:15:43.417Z,29.50
2017-05-07T11:18:12.353Z,29.40
2017-05-07T11:20:42.034Z,29.90
2017-05-07T11:23:11.703Z,29.50
2017-05-07T11:25:40.606Z,29.20
2017-05-07T11:28:09.574Z,28.30
2017-05-07T11:30:38.526Z,27.40
2017-05-07T11:33:08.206Z,27.40
2017-05-07T11:35:37.146Z,28.30
2017-05-07T11:38:06.060Z,29.10
2017-05-07T11:40:35.066Z,30.60
2017-05-07T11:43:04.131Z,31.60
2017-05-07T11:45:33.030Z,31.10
2017-05-07T11:48:01.983Z,29.90
2017-05-07T11:50:31.638Z,29.00
2017-05-07T11:53:00.553Z,28.10
2017-05-07T11:55:29.485Z,28.00
2017-05-07T11:57:58.414Z,27.90
2017-05-07T12:00:27.856Z,27.80
2017-05-07T12:02:56.822Z,28.30
2017-05-07T12:05:25.769Z,28.90
2017-05-07T12:07:54.702Z,29.80
2017-05-07T12:10:23.623Z,29.30
2017-05-07T12:12:53.295Z,29.10
2017-05-07T12:15:22.239Z,28.90
2017-05-07T12:17:51.157Z,29.90
2017-05-07T12:20:20.077Z,32.20
2017-05-07T12:22:48.959Z,33.10
2017-05-07T12:25:17.913Z,33.20
2017-05-07T12:27:46.829Z,34.20
2017-05-07T12:30:15.732Z,34.60
2017-05-07T12:32:44.636Z,34.60
2017-05-07T12:35:13.623Z,34.80
2017-05-07T12:37:42.539Z,36.30
2017-05-07T12:40:11.473Z,38.10
2017-05-07T12:42:40.375Z,38.20
2017-05-07T12:45:09.370Z,37.70
2017-05-07T12:47:38.308Z,37.90
2017-05-07T12:50:07.979Z,37.20
2017-05-07T12:52:37.548Z,37.00
2017-05-07T12:55:06.459Z,37.10
2017-05-07T12:57:35.480Z,36.10
2017-05-07T13:00:05.150Z,36.10
2017-05-07T13:02:34.053Z,36.40
2017-05-07T13:05:03.351Z,36.00
2017-05-07T13:07:36.659Z,39.90
2017-05-07T13:10:09.362Z,40.00
2017-05-07T13:12:39.078Z,38.90
2017-05-07T13:15:08.684Z,39.20
2017-05-07T13:17:38.412Z,36.70
2017-05-07T13:20:10.450Z,35.40
2017-05-07T13:22:39.830Z,35.70
2017-05-07T13:25:10.404Z,36.70
2017-05-07T13:27:39.686Z,34.60
2017-05-07T13:30:10.452Z,34.30
2017-05-07T13:32:39.945Z,34.60
2017-05-07T13:35:10.614Z,34.60
2017-05-07T13:37:40.206Z,35.00
2017-05-07T13:40:10.424Z,35.00
2017-05-07T13:42:39.660Z,35.30
2017-05-07T13:45:10.861Z,34.70
2017-05-07T13:47:41.016Z,34.70
2017-05-07T13:50:10.313Z,36.00
2017-05-07T13:52:39.523Z,37.10
2017-05-07T13:55:09.642Z,37.50
2017-05-07T13:57:39.458Z,37.40
2017-05-07T14:00:09.819Z,37.30
2017-05-07T14:02:39.634Z,37.60
2017-05-07T14:05:12.590Z,37.90
2017-05-07T14:07:41.722Z,39.80
2017-05-07T14:10:11.850Z,41.80
2017-05-07T14:12:41.292Z,42.20
2017-05-07T14:15:10.433Z,42.70
2017-05-07T14:17:39.410Z,44.30
2017-05-07T14:20:08.946Z,45.00
2017-05-07T14:22:37.882Z,45.40
2017-05-07T14:25:07.559Z,46.10
2017-05-07T14:27:36.562Z,46.20
2017-05-07T14:30:05.491Z,46.90
2017-05-07T14:32:35.130Z,46.90
2017-05-07T14:35:04.106Z,46.80
2017-05-07T14:37:33.062Z,46.60
2017-05-07T14:40:02.750Z,46.30
2017-05-07T14:42:31.680Z,46.20
2017-05-07T14:45:01.341Z,46.00
2017-05-07T14:47:31.176Z,45.80
2017-05-07T14:50:00.087Z,46.00
2017-05-07T14:52:29.803Z,44.90
2017-05-07T14:54:58.810Z,44.20
2017-05-07T14:57:28.974Z,43.80
2017-05-07T15:00:02.788Z,43.70
2017-05-07T15:02:31.723Z,43.60
2017-05-07T15:05:00.733Z,43.70
2017-05-07T15:07:29.727Z,43.90
2017-05-07T15:09:58.686Z,43.70
2017-05-07T15:12:28.343Z,43.10
2017-05-07T15:14:57.310Z,43.20
2017-05-07T15:17:26.246Z,43.20
2017-05-07T15:19:56.052Z,43.20
2017-05-07T15:22:24.985Z,43.50
2017-05-07T15:24:54.661Z,43.50
2017-05-07T15:27:23.602Z,43.90
2017-05-07T15:29:52.627Z,44.30
2017-05-07T15:32:21.573Z,44.80
2017-05-07T15:34:50.519Z,45.30
2017-05-07T15:37:19.516Z,45.70
2017-05-07T15:39:48.464Z,45.40
2017-05-07T15:42:17.416Z,45.50
2017-05-07T15:44:46.425Z,45.70
2017-05-07T15:47:16.085Z,45.90
2017-05-07T15:49:45.077Z,46.00
2017-05-07T15:52:14.074Z,45.80
2017-05-07T15:54:43.015Z,45.50
2017-05-07T15:57:13.246Z,45.20
2017-05-07T15:59:42.170Z,45.30
2017-05-07T16:02:11.134Z,45.10
2017-05-07T16:04:40.814Z,44.70
2017-05-07T16:07:10.511Z,45.40
2017-05-07T16:09:39.507Z,45.40
2017-05-07T16:12:08.468Z,45.40
2017-05-07T16:14:37.374Z,44.60
2017-05-07T16:20:23.458Z,44.50
2017-05-07T16:23:14.210Z,44.90
2017-05-07T16:25:57.827Z,44.90
2017-05-07T16:28:48.582Z,44.60
2017-05-07T16:31:19.019Z,45.20
2017-05-07T16:33:47.970Z,45.10
2017-05-07T16:36:16.968Z,44.70
2017-05-07T16:38:46.629Z,44.90
2017-05-07T16:41:15.593Z,45.20
2017-05-07T16:43:44.529Z,45.00
2017-05-07T16:46:13.466Z,44.80
2017-05-07T16:48:43.148Z,44.50
2017-05-07T16:51:12.099Z,44.90
2017-05-07T16:53:41.026Z,44.50
2017-05-07T16:56:10.005Z,44.90
2017-05-07T16:58:38.967Z,44.60
2017-05-07T17:01:07.918Z,44.90
2017-05-07T17:03:42.554Z,44.70
2017-05-07T17:06:17.241Z,44.60
2017-05-07T17:08:46.210Z,44.60
2017-05-07T17:11:15.870Z,44.90
2017-05-07T17:13:44.819Z,44.60
2017-05-07T17:16:14.444Z,45.50
2017-05-07T17:18:43.362Z,45.40
2017-05-07T17:21:12.325Z,45.70
2017-05-07T17:23:41.346Z,46.20
2017-05-07T17:26:10.303Z,46.00
2017-05-07T17:28:40.033Z,45.90
2017-05-07T17:31:08.988Z,46.00
2017-05-07T17:33:37.939Z,46.00
2017-05-07T17:36:06.875Z,46.00
2017-05-07T17:38:35.814Z,45.80
2017-05-07T17:41:04.752Z,46.00
2017-05-07T17:43:33.681Z,45.90
2017-05-07T17:46:02.647Z,46.00
2017-05-07T17:48:31.603Z,45.70
2017-05-07T17:51:01.357Z,46.00
2017-05-07T17:53:30.658Z,45.70
2017-05-07T17:56:00.706Z,45.70
2017-05-07T17:58:29.619Z,46.10
2017-05-07T18:00:59.295Z,46.30
2017-05-07T18:03:28.233Z,46.30
2017-05-07T18:05:57.339Z,46.60
2017-05-07T18:08:26.960Z,46.90
2017-05-07T18:10:55.904Z,47.10
2017-05-07T18:13:25.838Z,47.20
2017-05-07T18:15:54.759Z,47.60
2017-05-07T18:18:23.679Z,47.40
2017-05-07T18:20:52.664Z,47.40
2017-05-07T18:23:21.605Z,47.60
2017-05-07T18:25:51.303Z,47.60
2017-05-07T18:28:20.491Z,48.00
2017-05-07T18:30:49.457Z,48.40
2017-05-07T18:33:18.411Z,48.50
2017-05-07T18:35:47.326Z,48.60
2017-05-07T18:38:16.258Z,48.90
2017-05-07T18:40:45.942Z,48.70
2017-05-07T18:43:14.863Z,48.80
2017-05-07T18:45:43.961Z,48.90
2017-05-07T18:48:13.872Z,49.10
2017-05-07T18:50:42.848Z,49.10
2017-05-07T18:53:12.242Z,49.20
2017-05-07T18:55:41.187Z,49.20
2017-05-07T18:58:10.115Z,49.40
2017-05-07T19:00:39.219Z,49.70
2017-05-07T19:03:08.179Z,49.80
2017-05-07T19:05:37.890Z,50.10
2017-05-07T19:08:06.804Z,50.00
2017-05-07T19:10:35.827Z,50.10
2017-05-07T19:13:05.695Z,49.90
2017-05-07T19:15:34.683Z,49.70
2017-05-07T19:18:03.617Z,49.70
2017-05-07T19:20:32.587Z,49.60
2017-05-07T19:23:01.589Z,49.80
2017-05-07T19:25:30.518Z,50.20
2017-05-07T19:28:00.303Z,51.10
2017-05-07T19:30:29.256Z,50.20
2017-05-07T19:32:58.192Z,50.00
2017-05-07T19:35:27.235Z,50.50
2017-05-07T19:37:56.920Z,50.80
2017-05-07T19:40:26.604Z,51.10
2017-05-07T19:42:55.548Z,50.20
2017-05-07T19:45:25.426Z,50.50
2017-05-07T19:47:54.415Z,50.40
2017-05-07T19:50:23.348Z,50.50
2017-05-07T19:52:52.346Z,50.90
2017-05-07T19:55:21.281Z,50.80
2017-05-07T19:57:50.325Z,50.70
2017-05-07T20:00:21.032Z,50.80
2017-05-07T20:02:56.460Z,50.90
2017-05-07T20:05:26.193Z,50.80
2017-05-07T20:07:56.783Z,50.60
2017-05-07T20:10:25.919Z,50.70
2017-05-07T20:12:54.813Z,50.40
2017-05-07T20:15:23.719Z,50.50
2017-05-07T20:17:52.670Z,50.50
2017-05-07T20:20:22.336Z,50.50
2017-05-07T20:22:51.347Z,51.20
2017-05-07T20:25:20.299Z,51.60
2017-05-07T20:27:49.238Z,51.50
2017-05-07T20:30:18.223Z,51.90
2017-05-07T20:32:47.183Z,52.00
2017-05-07T20:35:16.133Z,52.30
2017-05-07T20:37:45.810Z,52.40
2017-05-07T20:40:14.780Z,52.50
2017-05-07T20:42:43.757Z,52.40
2017-05-07T20:45:12.719Z,52.60
2017-05-07T20:47:41.631Z,53.10
2017-05-07T20:50:11.302Z,53.60
2017-05-07T20:52:40.250Z,54.40
2017-05-07T20:55:09.197Z,54.60
2017-05-07T20:57:38.960Z,54.40
2017-05-07T21:00:07.875Z,54.30
2017-05-07T21:02:36.865Z,54.00
2017-05-07T21:05:06.540Z,54.40
2017-05-07T21:07:35.486Z,54.90
2017-05-07T21:10:04.407Z,54.40
2017-05-07T21:12:33.356Z,53.40
2017-05-07T21:15:02.256Z,52.60
2017-05-07T21:17:31.289Z,52.40
2017-05-07T21:20:00.281Z,52.10
2017-05-07T21:22:29.327Z,51.80
2017-05-07T21:24:58.986Z,51.80
2017-05-07T21:27:28.028Z,52.00
2017-05-07T21:29:56.925Z,52.00
2017-05-07T21:32:25.827Z,51.90
2017-05-07T21:34:54.750Z,52.40
2017-05-07T21:37:23.751Z,51.80
2017-05-07T21:39:52.661Z,52.00
2017-05-07T21:42:22.318Z,51.90
2017-05-07T21:44:51.299Z,51.90
2017-05-07T21:47:20.942Z,52.30
2017-05-07T21:49:49.847Z,53.10
2017-05-07T21:52:18.860Z,53.00
2017-05-07T21:54:48.944Z,53.20
2017-05-07T21:57:17.913Z,54.10
2017-05-07T21:59:46.829Z,54.60
2017-05-07T22:02:16.178Z,54.40
2017-05-07T22:04:45.077Z,53.90
2017-05-07T22:07:14.756Z,53.50
2017-05-07T22:09:43.665Z,53.80
2017-05-07T22:12:12.656Z,53.70
2017-05-07T22:14:41.578Z,53.80
2017-05-07T22:17:11.222Z,54.40
2017-05-07T22:19:40.185Z,55.90
2017-05-07T22:22:09.086Z,55.30
2017-05-07T22:24:38.026Z,55.80
2017-05-07T22:27:06.966Z,55.40
2017-05-07T22:29:35.882Z,55.30
2017-05-07T22:32:04.870Z,55.00
2017-05-07T22:34:33.803Z,54.80
2017-05-07T22:37:03.451Z,55.60
2017-05-07T22:39:32.367Z,55.90
2017-05-07T22:42:01.377Z,56.40
2017-05-07T22:44:30.259Z,56.40
2017-05-07T22:46:59.138Z,56.50
2017-05-07T22:49:28.126Z,56.40
2017-05-07T22:51:57.029Z,56.70
2017-05-07T22:54:25.926Z,57.00
2017-05-07T22:56:54.860Z,56.80
2017-05-07T22:59:23.778Z,56.80
2017-05-07T23:01:52.714Z,57.20
2017-05-07T23:04:21.622Z,57.30
2017-05-07T23:06:50.533Z,56.80
2017-05-07T23:09:19.680Z,56.90
2017-05-07T23:11:48.546Z,56.80
2017-05-07T23:14:17.526Z,57.30
2017-05-07T23:16:46.438Z,57.60
2017-05-07T23:19:15.367Z,58.00
2017-05-07T23:21:44.265Z,57.90
2017-05-07T23:24:13.171Z,57.30
2017-05-07T23:26:42.070Z,57.30
2017-05-07T23:29:11.010Z,58.00
2017-05-07T23:34:09.485Z,58.80
2017-05-07T23:36:38.525Z,59.10
2017-05-07T23:39:07.430Z,58.60
2017-05-07T23:41:36.422Z,58.30
2017-05-07T23:44:05.357Z,57.90
2017-05-07T23:46:34.259Z,58.00
2017-05-07T23:49:03.175Z,57.90
2017-05-07T23:51:32.879Z,57.60
2017-05-07T23:54:02.512Z,57.60
2017-05-07T23:56:31.484Z,57.70
2017-05-07T23:59:00.418Z,57.70
